createdAt,value
2019-05-09T00:02:34.608Z,9.76
2019-05-09T00:05:03.914Z,9.75
2019-05-09T00:07:33.679Z,9.71
2019-05-09T00:10:04.047Z,9.79
2019-05-09T00:12:33.567Z,9.81
2019-05-09T00:15:04.192Z,9.84
2019-05-09T00:17:30.280Z,9.85
2019-05-09T00:20:03.559Z,9.86
2019-05-09T00:22:33.254Z,9.86
2019-05-09T00:25:03.178Z,9.88
2019-05-09T00:27:30.389Z,9.88
2019-05-09T00:29:59.668Z,9.89
2019-05-09T00:32:34.806Z,9.86
2019-05-09T00:35:13.984Z,9.90
2019-05-09T00:38:13.276Z,9.90
2019-05-09T00:40:53.059Z,9.87
2019-05-09T00:43:10.205Z,9.84
2019-05-09T00:46:03.820Z,9.84
2019-05-09T00:48:35.201Z,9.81
2019-05-09T00:51:04.394Z,9.81
2019-05-09T00:53:34.039Z,9.77
2019-05-09T00:56:04.099Z,9.77
2019-05-09T00:58:33.416Z,9.78
2019-05-09T01:01:04.051Z,9.77
2019-05-09T01:03:30.610Z,9.77
2019-05-09T01:05:59.874Z,9.75
2019-05-09T01:08:29.075Z,9.75
2019-05-09T01:11:09.369Z,9.76
2019-05-09T01:13:27.924Z,9.72
2019-05-09T01:15:57.142Z,9.72
2019-05-09T01:18:26.397Z,9.67
2019-05-09T01:20:55.632Z,9.70
2019-05-09T01:23:24.847Z,9.71
2019-05-09T01:25:54.074Z,9.68
2019-05-09T01:28:23.351Z,9.68
2019-05-09T01:30:53.281Z,9.67
2019-05-09T01:33:43.933Z,9.65
2019-05-09T01:36:11.665Z,9.66
2019-05-09T01:38:43.127Z,9.64
2019-05-09T01:41:26.284Z,9.63
2019-05-09T01:43:39.446Z,9.64
2019-05-09T01:46:08.668Z,9.64
2019-05-09T01:48:37.918Z,9.63
2019-05-09T01:51:07.164Z,9.56
2019-05-09T01:53:38.121Z,9.61
2019-05-09T01:56:07.359Z,9.61
2019-05-09T01:58:36.631Z,9.55
2019-05-09T02:01:06.255Z,9.55
2019-05-09T02:03:35.516Z,9.58
2019-05-09T02:06:04.841Z,9.57
2019-05-09T02:08:34.610Z,9.54
2019-05-09T02:11:03.965Z,9.55
2019-05-09T02:13:33.883Z,9.57
2019-05-09T02:16:10.118Z,9.58
2019-05-09T02:18:44.079Z,9.58
2019-05-09T02:21:14.534Z,9.56
2019-05-09T02:23:43.192Z,9.58
2019-05-09T02:26:13.374Z,9.57
2019-05-09T02:28:40.335Z,9.54
2019-05-09T02:31:09.529Z,9.54
2019-05-09T02:33:38.802Z,9.51
2019-05-09T02:36:09.755Z,9.54
2019-05-09T02:38:39.251Z,9.54
2019-05-09T02:41:08.564Z,9.53
2019-05-09T02:43:38.680Z,9.57
2019-05-09T02:46:19.462Z,9.54
2019-05-09T02:48:49.673Z,9.54
2019-05-09T02:51:18.721Z,9.54
2019-05-09T02:53:48.566Z,9.51
2019-05-09T02:56:18.774Z,9.50
2019-05-09T02:59:19.719Z,9.47
2019-05-09T03:02:02.614Z,9.48
2019-05-09T03:04:31.860Z,9.48
2019-05-09T03:07:01.115Z,9.44
2019-05-09T03:09:30.340Z,9.39
2019-05-09T03:12:20.500Z,9.39
2019-05-09T03:14:28.948Z,9.42
2019-05-09T03:16:58.889Z,9.41
2019-05-09T03:19:29.696Z,9.39
2019-05-09T03:21:59.782Z,9.39
2019-05-09T03:24:29.151Z,9.40
2019-05-09T03:27:01.277Z,9.39
2019-05-09T03:29:33.941Z,9.38
2019-05-09T03:32:03.148Z,9.39
2019-05-09T03:34:32.428Z,9.38
2019-05-09T03:37:01.744Z,9.41
2019-05-09T03:39:31.008Z,9.41
2019-05-09T03:42:00.380Z,9.40
2019-05-09T03:44:29.693Z,9.38
2019-05-09T03:47:29.972Z,9.38
2019-05-09T03:50:09.882Z,9.33
2019-05-09T03:52:39.129Z,9.33
2019-05-09T03:55:08.452Z,9.35
2019-05-09T03:57:39.032Z,9.35
2019-05-09T04:00:08.246Z,9.34
2019-05-09T04:02:38.365Z,9.28
2019-05-09T04:05:08.121Z,9.29
2019-05-09T04:07:38.012Z,9.29
2019-05-09T04:10:07.679Z,9.26
2019-05-09T04:12:34.750Z,9.26
2019-05-09T04:15:04.456Z,9.21
2019-05-09T04:17:43.644Z,9.19
2019-05-09T04:20:13.766Z,9.19
2019-05-09T04:22:43.026Z,9.17
2019-05-09T04:25:13.644Z,9.17
2019-05-09T04:27:43.252Z,9.18
2019-05-09T04:30:12.471Z,9.11
2019-05-09T04:32:41.776Z,9.16
2019-05-09T04:35:11.032Z,9.17
2019-05-09T04:37:40.274Z,9.18
2019-05-09T04:40:09.474Z,9.18
2019-05-09T04:42:43.054Z,9.14
2019-05-09T04:45:19.807Z,9.14
2019-05-09T04:47:49.018Z,9.15
2019-05-09T04:50:23.505Z,9.11
2019-05-09T04:52:47.607Z,9.16
2019-05-09T04:55:18.235Z,9.16
2019-05-09T04:57:46.054Z,9.18
2019-05-09T05:00:18.404Z,9.26
2019-05-09T05:02:48.790Z,9.43
2019-05-09T05:05:18.187Z,9.43
2019-05-09T05:07:48.042Z,9.53
2019-05-09T05:10:18.383Z,9.63
2019-05-09T05:12:45.882Z,9.70
2019-05-09T05:15:15.104Z,9.82
2019-05-09T05:17:44.352Z,9.92
2019-05-09T05:20:15.882Z,10.06
2019-05-09T05:22:49.198Z,10.11
2019-05-09T05:25:18.397Z,10.08
2019-05-09T05:27:47.746Z,10.14
2019-05-09T05:30:17.947Z,10.26
2019-05-09T05:32:51.273Z,10.33
2019-05-09T05:35:37.603Z,10.39
2019-05-09T05:38:04.917Z,10.50
2019-05-09T05:40:34.201Z,10.38
2019-05-09T05:43:03.516Z,10.40
2019-05-09T05:45:37.402Z,10.36
2019-05-09T05:48:09.196Z,10.36
2019-05-09T05:50:38.856Z,10.32
2019-05-09T05:53:08.136Z,10.29
2019-05-09T05:55:38.027Z,10.27
2019-05-09T05:58:08.605Z,10.28
2019-05-09T06:00:37.728Z,10.25
2019-05-09T06:03:05.326Z,10.30
2019-05-09T06:05:34.510Z,10.24
2019-05-09T06:08:03.767Z,10.17
2019-05-09T06:10:32.962Z,10.21
2019-05-09T06:13:02.198Z,10.31
2019-05-09T06:15:31.495Z,10.43
2019-05-09T06:18:00.732Z,9.97
2019-05-09T06:20:30.003Z,10.63
2019-05-09T06:22:59.211Z,10.68
2019-05-09T06:25:30.633Z,10.80
2019-05-09T06:27:58.411Z,10.88
2019-05-09T06:30:28.260Z,10.89
2019-05-09T06:32:59.272Z,10.80
2019-05-09T06:35:32.728Z,10.82
2019-05-09T06:38:02.234Z,10.79
2019-05-09T06:40:31.628Z,10.73
2019-05-09T06:43:15.388Z,10.81
2019-05-09T06:46:22.113Z,10.90
2019-05-09T06:48:51.365Z,10.99
2019-05-09T06:51:21.443Z,11.15
2019-05-09T06:53:49.966Z,11.16
2019-05-09T06:56:19.232Z,11.14
2019-05-09T06:58:48.434Z,11.13
2019-05-09T07:01:37.601Z,11.13
2019-05-09T07:04:12.190Z,11.18
2019-05-09T07:06:45.480Z,11.15
2019-05-09T07:09:18.538Z,11.19
2019-05-09T07:11:48.599Z,11.18
2019-05-09T07:14:38.211Z,11.14
2019-05-09T07:17:03.282Z,11.20
2019-05-09T07:19:33.073Z,11.23
2019-05-09T07:22:21.183Z,11.26
2019-05-09T07:25:05.982Z,11.43
2019-05-09T07:27:28.824Z,11.72
2019-05-09T07:29:58.809Z,11.99
2019-05-09T07:32:28.376Z,12.36
2019-05-09T07:35:00.922Z,12.63
2019-05-09T07:37:30.186Z,12.88
2019-05-09T07:40:00.044Z,13.05
2019-05-09T07:42:29.816Z,13.07
2019-05-09T07:44:59.363Z,13.15
2019-05-09T07:47:28.352Z,13.04
2019-05-09T07:49:58.515Z,12.86
2019-05-09T07:52:28.402Z,12.90
2019-05-09T07:54:58.061Z,13.01
2019-05-09T07:57:25.208Z,12.98
2019-05-09T07:59:54.444Z,12.92
2019-05-09T08:02:23.740Z,13.13
2019-05-09T08:04:52.990Z,13.28
2019-05-09T08:07:22.208Z,13.29
2019-05-09T08:09:51.440Z,13.53
2019-05-09T08:12:20.674Z,13.57
2019-05-09T08:15:07.499Z,13.57
2019-05-09T08:17:19.081Z,13.47
2019-05-09T08:19:48.611Z,13.55
2019-05-09T08:22:24.930Z,13.66
2019-05-09T08:24:48.331Z,13.63
2019-05-09T08:27:17.497Z,14.08
2019-05-09T08:29:47.695Z,14.67
2019-05-09T08:32:14.598Z,14.69
2019-05-09T08:34:43.879Z,15.08
2019-05-09T08:37:13.113Z,15.47
2019-05-09T08:39:42.323Z,15.62
2019-05-09T08:42:11.550Z,15.55
2019-05-09T08:44:42.161Z,15.37
2019-05-09T08:47:10.110Z,15.24
2019-05-09T08:49:54.306Z,15.36
2019-05-09T08:52:23.538Z,15.34
2019-05-09T08:54:57.674Z,15.30
2019-05-09T08:57:24.692Z,15.51
2019-05-09T08:59:53.891Z,15.51
2019-05-09T09:02:23.136Z,15.62
2019-05-09T09:04:52.394Z,15.86
2019-05-09T09:07:21.606Z,15.76
2019-05-09T09:09:50.852Z,15.96
2019-05-09T09:12:30.291Z,16.20
2019-05-09T09:14:53.292Z,16.42
2019-05-09T09:17:22.543Z,16.41
2019-05-09T09:19:51.780Z,15.78
2019-05-09T09:22:21.042Z,15.70
2019-05-09T09:24:50.245Z,15.55
2019-05-09T09:27:19.559Z,16.14
2019-05-09T09:29:48.782Z,16.78
2019-05-09T09:32:18.922Z,16.92
2019-05-09T09:34:48.482Z,17.73
2019-05-09T09:37:18.499Z,17.41
2019-05-09T09:39:48.576Z,17.13
2019-05-09T09:42:15.201Z,16.97
2019-05-09T09:44:44.510Z,16.79
2019-05-09T09:47:19.515Z,16.91
2019-05-09T09:49:43.008Z,17.12
2019-05-09T09:52:12.254Z,17.63
2019-05-09T09:54:41.486Z,17.99
2019-05-09T09:57:10.748Z,18.74
2019-05-09T10:00:07.423Z,18.66
2019-05-09T10:02:37.862Z,19.23
2019-05-09T10:05:07.705Z,19.36
2019-05-09T10:07:35.127Z,19.48
2019-05-09T10:10:07.723Z,19.67
2019-05-09T10:12:34.497Z,19.15
2019-05-09T10:15:31.538Z,18.24
2019-05-09T10:18:18.570Z,17.52
2019-05-09T10:21:01.440Z,16.96
2019-05-09T10:24:18.626Z,16.44
2019-05-09T10:27:08.763Z,17.01
2019-05-09T10:29:35.779Z,17.12
2019-05-09T10:32:15.099Z,17.09
2019-05-09T10:34:44.544Z,17.47
2019-05-09T10:37:13.800Z,18.05
2019-05-09T10:39:43.104Z,17.82
2019-05-09T10:42:20.802Z,18.11
2019-05-09T10:44:55.673Z,17.92
2019-05-09T10:47:27.927Z,18.68
2019-05-09T10:49:58.158Z,19.32
2019-05-09T10:52:28.320Z,19.34
2019-05-09T10:54:57.846Z,20.00
2019-05-09T10:57:24.865Z,20.20
2019-05-09T10:59:54.078Z,20.45
2019-05-09T11:02:23.304Z,19.84
2019-05-09T11:04:52.590Z,19.91
2019-05-09T11:07:21.813Z,20.01
2019-05-09T11:09:51.072Z,20.12
2019-05-09T11:12:20.298Z,20.60
2019-05-09T11:14:49.575Z,21.09
2019-05-09T11:17:21.807Z,21.99
2019-05-09T11:19:48.385Z,21.93
2019-05-09T11:22:18.336Z,22.56
2019-05-09T11:24:50.924Z,23.32
2019-05-09T11:27:15.718Z,24.04
2019-05-09T11:29:47.475Z,24.06
2019-05-09T11:32:14.538Z,23.51
2019-05-09T11:34:43.895Z,23.16
2019-05-09T11:37:13.103Z,22.35
2019-05-09T11:39:42.434Z,22.48
2019-05-09T11:42:11.515Z,23.30
2019-05-09T11:44:40.715Z,23.61
2019-05-09T11:47:27.614Z,23.48
2019-05-09T11:49:39.359Z,22.43
2019-05-09T11:52:08.558Z,21.59
2019-05-09T11:54:38.875Z,20.90
2019-05-09T11:57:07.616Z,20.73
2019-05-09T11:59:37.957Z,21.46
2019-05-09T12:02:05.602Z,22.21
2019-05-09T12:04:34.856Z,23.19
2019-05-09T12:07:04.152Z,23.97
2019-05-09T12:09:33.350Z,24.03
2019-05-09T12:12:02.579Z,23.95
2019-05-09T12:14:31.764Z,24.33
2019-05-09T12:17:01.234Z,24.44
2019-05-09T12:19:30.478Z,24.47
2019-05-09T12:21:59.924Z,24.61
2019-05-09T12:24:29.716Z,25.26
2019-05-09T12:27:02.207Z,25.54
2019-05-09T12:29:28.757Z,25.07
2019-05-09T12:31:56.991Z,24.56
2019-05-09T12:34:27.661Z,24.28
2019-05-09T12:36:58.392Z,24.62
2019-05-09T12:39:24.692Z,23.79
2019-05-09T12:41:53.876Z,24.17
2019-05-09T12:44:25.187Z,24.22
2019-05-09T12:46:52.413Z,24.19
2019-05-09T12:49:21.632Z,24.24
2019-05-09T12:51:50.877Z,24.13
2019-05-09T12:54:20.097Z,23.13
2019-05-09T12:56:49.384Z,23.14
2019-05-09T12:59:18.961Z,23.05
2019-05-09T13:01:49.164Z,23.40
2019-05-09T13:04:17.054Z,22.56
2019-05-09T13:06:48.575Z,22.15
2019-05-09T13:09:17.819Z,22.21
2019-05-09T13:11:44.887Z,22.18
2019-05-09T13:14:14.158Z,21.92
2019-05-09T13:17:09.440Z,21.42
2019-05-09T13:19:44.761Z,22.11
2019-05-09T13:22:14.040Z,22.48
2019-05-09T13:24:43.292Z,23.20
2019-05-09T13:27:12.564Z,23.56
2019-05-09T13:29:41.814Z,22.50
2019-05-09T13:32:11.087Z,22.88
2019-05-09T13:34:40.336Z,22.01
2019-05-09T13:37:09.588Z,21.68
2019-05-09T13:39:41.206Z,21.35
2019-05-09T13:42:09.712Z,21.10
2019-05-09T13:44:41.489Z,21.01
2019-05-09T13:47:10.949Z,20.28
2019-05-09T13:49:39.477Z,19.58
2019-05-09T13:52:09.911Z,18.93
2019-05-09T13:54:38.100Z,18.40
2019-05-09T13:57:05.246Z,18.26
2019-05-09T13:59:34.444Z,18.14
2019-05-09T14:02:04.350Z,19.11
2019-05-09T14:04:33.903Z,20.02
2019-05-09T14:07:03.098Z,21.22
2019-05-09T14:09:32.329Z,22.03
2019-05-09T14:12:01.584Z,22.09
2019-05-09T14:14:30.817Z,22.91
2019-05-09T14:17:00.079Z,23.28
2019-05-09T14:19:40.554Z,23.31
2019-05-09T14:21:58.928Z,23.43
2019-05-09T14:24:28.649Z,23.11
2019-05-09T14:26:58.328Z,22.94
2019-05-09T14:29:31.671Z,23.04
2019-05-09T14:31:56.716Z,22.79
2019-05-09T14:34:26.024Z,22.80
2019-05-09T14:36:55.287Z,23.27
2019-05-09T14:39:24.532Z,23.01
2019-05-09T14:41:53.790Z,23.04
2019-05-09T14:44:23.032Z,22.79
2019-05-09T14:46:52.264Z,22.64
2019-05-09T14:49:21.483Z,22.08
2019-05-09T14:51:50.803Z,20.92
2019-05-09T14:54:20.114Z,20.80
2019-05-09T14:56:49.386Z,20.71
2019-05-09T14:59:18.849Z,20.61
2019-05-09T15:01:49.625Z,20.52
2019-05-09T15:04:18.896Z,20.31
2019-05-09T15:06:48.628Z,20.10
2019-05-09T15:09:18.025Z,19.89
2019-05-09T15:11:44.952Z,19.71
2019-05-09T15:14:14.205Z,19.90
2019-05-09T15:16:43.447Z,20.17
2019-05-09T15:19:12.727Z,20.18
2019-05-09T15:21:41.999Z,19.73
2019-05-09T15:24:11.262Z,19.38
2019-05-09T15:26:40.517Z,19.00
2019-05-09T15:29:09.846Z,19.09
2019-05-09T15:31:39.457Z,19.04
2019-05-09T15:34:10.205Z,18.87
2019-05-09T15:36:38.046Z,18.55
2019-05-09T15:39:08.104Z,18.23
2019-05-09T15:41:38.524Z,17.83
2019-05-09T15:44:08.233Z,17.74
2019-05-09T15:46:39.070Z,17.48
2019-05-09T15:49:08.331Z,17.28
2019-05-09T15:51:38.596Z,17.16
2019-05-09T15:54:08.300Z,17.04
2019-05-09T15:56:38.313Z,16.98
2019-05-09T15:59:05.371Z,16.93
2019-05-09T16:01:34.728Z,16.74
2019-05-09T16:04:04.116Z,16.72
2019-05-09T16:06:33.536Z,16.57
2019-05-09T16:09:02.992Z,16.59
2019-05-09T16:11:32.347Z,16.56
2019-05-09T16:14:03.216Z,16.64
2019-05-09T16:16:31.053Z,16.51
2019-05-09T16:19:00.334Z,16.38
2019-05-09T16:21:29.545Z,16.16
2019-05-09T16:23:59.424Z,16.00
2019-05-09T16:26:29.074Z,15.91
2019-05-09T16:28:58.149Z,15.88
2019-05-09T16:31:27.906Z,15.80
2019-05-09T16:33:58.097Z,15.79
2019-05-09T16:36:25.148Z,15.77
2019-05-09T16:38:54.428Z,15.74
2019-05-09T16:41:23.765Z,15.79
2019-05-09T16:43:53.038Z,15.90
2019-05-09T16:46:22.275Z,15.92
2019-05-09T16:48:51.543Z,15.90
2019-05-09T16:51:20.864Z,15.87
2019-05-09T16:53:50.231Z,15.82
2019-05-09T16:56:19.559Z,15.92
2019-05-09T16:58:48.855Z,15.82
2019-05-09T17:01:18.751Z,15.85
2019-05-09T17:03:47.381Z,15.94
2019-05-09T17:06:18.405Z,15.92
2019-05-09T17:08:47.543Z,15.89
2019-05-09T17:11:15.215Z,15.81
2019-05-09T17:13:44.567Z,15.75
2019-05-09T17:16:13.871Z,15.69
2019-05-09T17:18:43.114Z,15.62
2019-05-09T17:21:30.294Z,15.54
2019-05-09T17:23:59.800Z,15.50
2019-05-09T17:26:29.195Z,15.46
2019-05-09T17:28:58.571Z,15.47
2019-05-09T17:31:27.861Z,15.51
2019-05-09T17:33:57.932Z,15.44
2019-05-09T17:36:28.551Z,15.33
2019-05-09T17:38:55.889Z,15.32
2019-05-09T17:41:25.137Z,15.34
2019-05-09T17:43:54.411Z,15.37
2019-05-09T17:46:24.526Z,15.47
2019-05-09T17:48:53.022Z,15.77
2019-05-09T17:51:32.968Z,15.87
2019-05-09T17:53:52.260Z,15.93
2019-05-09T17:56:20.996Z,15.94
2019-05-09T17:58:50.311Z,15.86
2019-05-09T18:01:19.620Z,15.71
2019-05-09T18:03:48.978Z,15.61
2019-05-09T18:06:19.126Z,15.88
2019-05-09T18:08:48.470Z,16.49
2019-05-09T18:11:17.421Z,16.72
2019-05-09T18:13:48.064Z,16.62
2019-05-09T18:16:15.497Z,16.50
2019-05-09T18:18:44.706Z,16.29
2019-05-09T18:21:13.933Z,16.02
2019-05-09T18:23:43.155Z,15.89
2019-05-09T18:26:12.401Z,15.67
2019-05-09T18:28:41.643Z,15.45
2019-05-09T18:31:10.908Z,15.23
2019-05-09T18:33:47.596Z,15.02
2019-05-09T18:36:15.141Z,14.93
2019-05-09T18:38:44.327Z,14.82
2019-05-09T18:41:13.607Z,14.77
2019-05-09T18:43:42.818Z,14.74
2019-05-09T18:46:12.039Z,14.68
2019-05-09T18:48:41.261Z,14.63
2019-05-09T18:51:10.499Z,14.62
2019-05-09T18:53:39.781Z,14.58
2019-05-09T18:56:09.037Z,14.47
2019-05-09T18:58:38.320Z,14.43
2019-05-09T19:01:07.545Z,14.39
2019-05-09T19:03:36.782Z,14.36
2019-05-09T19:06:05.976Z,14.32
2019-05-09T19:08:35.187Z,14.27
2019-05-09T19:11:04.463Z,14.24
2019-05-09T19:13:33.735Z,14.20
2019-05-09T19:16:18.635Z,14.16
2019-05-09T19:19:09.797Z,14.08
2019-05-09T19:21:48.173Z,14.00
2019-05-09T19:24:17.399Z,13.94
2019-05-09T19:26:46.601Z,13.88
2019-05-09T19:29:15.825Z,13.79
2019-05-09T19:31:45.076Z,13.74
2019-05-09T19:34:14.332Z,13.64
2019-05-09T19:36:43.653Z,13.56
2019-05-09T19:39:12.933Z,13.53
2019-05-09T19:41:42.173Z,13.46
2019-05-09T19:44:11.414Z,13.41
2019-05-09T19:46:40.689Z,13.34
2019-05-09T19:49:09.901Z,13.30
2019-05-09T19:51:39.106Z,13.26
2019-05-09T19:54:08.325Z,13.22
2019-05-09T19:56:37.572Z,13.14
2019-05-09T19:59:07.917Z,13.09
2019-05-09T20:01:36.243Z,13.01
2019-05-09T20:04:05.513Z,12.97
2019-05-09T20:06:34.735Z,12.96
2019-05-09T20:09:06.055Z,12.93
2019-05-09T20:11:54.373Z,12.92
2019-05-09T20:14:29.711Z,12.89
2019-05-09T20:16:58.977Z,12.80
2019-05-09T20:19:28.197Z,12.78
2019-05-09T20:21:57.483Z,12.76
2019-05-09T20:24:26.771Z,12.77
2019-05-09T20:26:56.000Z,12.76
2019-05-09T20:29:25.267Z,12.70
2019-05-09T20:31:54.522Z,12.66
2019-05-09T20:34:23.752Z,12.62
2019-05-09T20:36:53.052Z,12.58
2019-05-09T20:39:22.300Z,12.55
2019-05-09T20:41:51.568Z,12.54
2019-05-09T20:44:20.781Z,12.51
2019-05-09T20:46:50.080Z,12.46
2019-05-09T20:49:19.331Z,12.42
2019-05-09T20:51:48.563Z,12.37
2019-05-09T20:54:20.902Z,12.33
2019-05-09T20:56:47.141Z,12.30
2019-05-09T20:59:16.652Z,12.23
2019-05-09T21:01:45.831Z,12.16
2019-05-09T21:04:15.083Z,12.07
2019-05-09T21:06:44.320Z,12.07
2019-05-09T21:09:13.527Z,12.03
2019-05-09T21:11:42.759Z,12.00
2019-05-09T21:14:12.243Z,11.96
2019-05-09T21:16:41.464Z,11.91
2019-05-09T21:19:10.718Z,11.82
2019-05-09T21:21:39.949Z,11.83
2019-05-09T21:24:09.267Z,11.85
2019-05-09T21:26:38.505Z,11.84
2019-05-09T21:29:07.733Z,11.81
2019-05-09T21:31:36.962Z,11.80
2019-05-09T21:34:06.177Z,11.75
2019-05-09T21:36:35.401Z,11.75
2019-05-09T21:39:06.223Z,11.70
2019-05-09T21:41:35.444Z,11.75
2019-05-09T21:44:04.826Z,11.76
2019-05-09T21:46:34.047Z,11.74
2019-05-09T21:49:03.340Z,11.73
2019-05-09T21:51:32.556Z,11.73
2019-05-09T21:54:01.767Z,11.71
2019-05-09T21:56:30.998Z,11.70
2019-05-09T21:59:00.227Z,11.69
2019-05-09T22:01:29.571Z,11.69
2019-05-09T22:03:58.851Z,11.60
2019-05-09T22:06:28.131Z,11.56
2019-05-09T22:08:57.429Z,11.56
2019-05-09T22:11:26.685Z,11.57
2019-05-09T22:13:55.962Z,11.53
2019-05-09T22:16:25.264Z,11.53
2019-05-09T22:18:54.535Z,11.48
2019-05-09T22:21:23.737Z,11.45
2019-05-09T22:23:57.188Z,11.43
2019-05-09T22:26:22.205Z,11.41
2019-05-09T22:28:51.480Z,11.37
2019-05-09T22:31:20.689Z,11.37
2019-05-09T22:33:49.949Z,11.33
2019-05-09T22:36:19.201Z,11.31
2019-05-09T22:38:48.508Z,11.27
2019-05-09T22:41:17.721Z,11.23
2019-05-09T22:43:47.021Z,11.18
2019-05-09T22:46:16.269Z,11.14
2019-05-09T22:48:45.547Z,11.10
2019-05-09T22:51:14.873Z,11.10
2019-05-09T22:53:44.093Z,11.02
2019-05-09T22:56:13.336Z,10.99
2019-05-09T22:58:42.557Z,10.89
2019-05-09T23:01:11.910Z,10.83
2019-05-09T23:03:41.116Z,10.83
2019-05-09T23:06:10.328Z,10.83
2019-05-09T23:08:39.596Z,10.79
2019-05-09T23:11:08.875Z,10.79
2019-05-09T23:13:53.352Z,10.71
2019-05-09T23:16:23.251Z,10.68
2019-05-09T23:18:52.600Z,10.61
2019-05-09T23:21:22.018Z,10.59
2019-05-09T23:24:10.357Z,10.52
2019-05-09T23:26:39.568Z,10.48
2019-05-09T23:29:08.840Z,10.48
2019-05-09T23:31:44.530Z,10.45
2019-05-09T23:34:13.837Z,10.37
2019-05-09T23:36:43.085Z,10.36
2019-05-09T23:39:25.444Z,10.33
2019-05-09T23:41:54.701Z,10.26
2019-05-09T23:44:23.927Z,10.21
2019-05-09T23:46:53.224Z,10.16
2019-05-09T23:49:22.473Z,10.16
2019-05-09T23:51:51.880Z,10.16
2019-05-09T23:54:47.378Z,10.12
2019-05-09T23:57:25.938Z,10.14
